sensor_id;sensor_type;location;lat;lon;timestamp;P1;durP1;ratioP1;P2;durP2;ratioP2
59161;SDS011;44942;48.936;8.260;2024-01-07T00:02:46;3.00;;;2.70;;
59161;SDS011;44942;48.936;8.260;2024-01-07T00:07:47;2.30;;;2.10;;
59161;SDS011;44942;48.936;8.260;2024-01-07T00:12:49;2.70;;;2.45;;
59161;SDS011;44942;48.936;8.260;2024-01-07T00:17:51;4.55;;;2.47;;
59161;SDS011;44942;48.936;8.260;2024-01-07T00:22:52;3.73;;;2.47;;
59161;SDS011;44942;48.936;8.260;2024-01-07T00:27:53;2.67;;;2.43;;
59161;SDS011;44942;48.936;8.260;2024-01-07T00:32:55;2.40;;;2.20;;
59161;SDS011;44942;48.936;8.260;2024-01-07T00:37:55;2.13;;;2.00;;
59161;SDS011;44942;48.936;8.260;2024-01-07T00:42:56;2.20;;;2.00;;
59161;SDS011;44942;48.936;8.260;2024-01-07T00:47:57;2.20;;;2.00;;
59161;SDS011;44942;48.936;8.260;2024-01-07T00:52:57;2.30;;;2.10;;
59161;SDS011;44942;48.936;8.260;2024-01-07T00:57:58;2.17;;;1.97;;
59161;SDS011;44942;48.936;8.260;2024-01-07T01:02:58;2.13;;;1.93;;
59161;SDS011;44942;48.936;8.260;2024-01-07T01:07:59;1.90;;;1.80;;
59161;SDS011;44942;48.936;8.260;2024-01-07T01:12:59;1.97;;;1.87;;
59161;SDS011;44942;48.936;8.260;2024-01-07T01:18:00;2.30;;;1.90;;
59161;SDS011;44942;48.936;8.260;2024-01-07T01:23:01;2.10;;;1.90;;
59161;SDS011;44942;48.936;8.260;2024-01-07T01:28:01;1.70;;;1.60;;
59161;SDS011;44942;48.936;8.260;2024-01-07T01:33:02;1.80;;;1.70;;
59161;SDS011;44942;48.936;8.260;2024-01-07T01:38:03;2.00;;;1.90;;
59161;SDS011;44942;48.936;8.260;2024-01-07T01:43:04;1.80;;;1.70;;
59161;SDS011;44942;48.936;8.260;2024-01-07T01:48:05;1.75;;;1.65;;
59161;SDS011;44942;48.936;8.260;2024-01-07T01:53:06;3.00;;;2.75;;
59161;SDS011;44942;48.936;8.260;2024-01-07T01:58:06;3.30;;;3.00;;
59161;SDS011;44942;48.936;8.260;2024-01-07T02:03:09;2.85;;;2.65;;
59161;SDS011;44942;48.936;8.260;2024-01-07T02:08:09;2.50;;;2.30;;
59161;SDS011;44942;48.936;8.260;2024-01-07T02:18:11;1.87;;;1.77;;
59161;SDS011;44942;48.936;8.260;2024-01-07T02:23:12;2.17;;;1.98;;
59161;SDS011;44942;48.936;8.260;2024-01-07T02:28:13;1.93;;;1.80;;
59161;SDS011;44942;48.936;8.260;2024-01-07T02:33:13;2.30;;;2.10;;
59161;SDS011;44942;48.936;8.260;2024-01-07T02:38:14;1.93;;;1.83;;
59161;SDS011;44942;48.936;8.260;2024-01-07T02:43:14;2.17;;;1.97;;
59161;SDS011;44942;48.936;8.260;2024-01-07T02:48:15;1.90;;;1.80;;
59161;SDS011;44942;48.936;8.260;2024-01-07T02:53:15;2.30;;;2.10;;
59161;SDS011;44942;48.936;8.260;2024-01-07T02:58:16;2.20;;;2.00;;
59161;SDS011;44942;48.936;8.260;2024-01-07T03:03:17;2.10;;;1.88;;
59161;SDS011;44942;48.936;8.260;2024-01-07T03:08:17;2.40;;;2.20;;
59161;SDS011;44942;48.936;8.260;2024-01-07T03:13:18;2.37;;;2.00;;
59161;SDS011;44942;48.936;8.260;2024-01-07T03:18:18;3.60;;;2.03;;
59161;SDS011;44942;48.936;8.260;2024-01-07T03:23:19;2.10;;;1.90;;
59161;SDS011;44942;48.936;8.260;2024-01-07T03:28:19;2.03;;;1.70;;
59161;SDS011;44942;48.936;8.260;2024-01-07T03:33:20;2.30;;;2.10;;
59161;SDS011;44942;48.936;8.260;2024-01-07T03:38:21;2.10;;;1.90;;
59161;SDS011;44942;48.936;8.260;2024-01-07T03:43:21;1.90;;;1.80;;
59161;SDS011;44942;48.936;8.260;2024-01-07T03:48:22;2.33;;;2.13;;
59161;SDS011;44942;48.936;8.260;2024-01-07T03:53:22;3.37;;;2.90;;
59161;SDS011;44942;48.936;8.260;2024-01-07T03:58:23;3.10;;;2.72;;
59161;SDS011;44942;48.936;8.260;2024-01-07T04:03:24;2.90;;;2.60;;
59161;SDS011;44942;48.936;8.260;2024-01-07T04:08:24;2.90;;;2.60;;
59161;SDS011;44942;48.936;8.260;2024-01-07T04:13:25;2.40;;;2.20;;
59161;SDS011;44942;48.936;8.260;2024-01-07T04:18:25;2.50;;;2.30;;
59161;SDS011;44942;48.936;8.260;2024-01-07T04:23:26;2.30;;;2.10;;
59161;SDS011;44942;48.936;8.260;2024-01-07T04:28:26;3.50;;;1.93;;
59161;SDS011;44942;48.936;8.260;2024-01-07T04:33:27;2.45;;;2.20;;
59161;SDS011;44942;48.936;8.260;2024-01-07T04:38:28;3.30;;;2.00;;
59161;SDS011;44942;48.936;8.260;2024-01-07T04:43:29;2.30;;;2.10;;
59161;SDS011;44942;48.936;8.260;2024-01-07T04:48:29;2.40;;;2.20;;
59161;SDS011;44942;48.936;8.260;2024-01-07T04:53:30;4.83;;;2.77;;
59161;SDS011;44942;48.936;8.260;2024-01-07T04:58:30;3.13;;;2.83;;
59161;SDS011;44942;48.936;8.260;2024-01-07T05:03:31;2.70;;;2.50;;
59161;SDS011;44942;48.936;8.260;2024-01-07T05:08:32;2.60;;;2.40;;
59161;SDS011;44942;48.936;8.260;2024-01-07T05:13:32;2.40;;;2.20;;
59161;SDS011;44942;48.936;8.260;2024-01-07T05:18:33;2.45;;;2.25;;
59161;SDS011;44942;48.936;8.260;2024-01-07T05:23:34;2.73;;;2.20;;
59161;SDS011;44942;48.936;8.260;2024-01-07T05:28:36;2.53;;;2.33;;
59161;SDS011;44942;48.936;8.260;2024-01-07T05:33:37;2.40;;;2.20;;
59161;SDS011;44942;48.936;8.260;2024-01-07T05:38:37;2.27;;;2.07;;
59161;SDS011;44942;48.936;8.260;2024-01-07T05:43:38;2.42;;;2.10;;
59161;SDS011;44942;48.936;8.260;2024-01-07T05:48:42;2.10;;;1.90;;
59161;SDS011;44942;48.936;8.260;2024-01-07T05:53:47;2.25;;;2.05;;
59161;SDS011;44942;48.936;8.260;2024-01-07T05:58:48;2.30;;;2.00;;
59161;SDS011;44942;48.936;8.260;2024-01-07T06:03:48;2.03;;;1.83;;
59161;SDS011;44942;48.936;8.260;2024-01-07T06:08:49;2.10;;;1.90;;
59161;SDS011;44942;48.936;8.260;2024-01-07T06:13:50;2.77;;;1.60;;
59161;SDS011;44942;48.936;8.260;2024-01-07T06:18:50;2.27;;;2.07;;
59161;SDS011;44942;48.936;8.260;2024-01-07T06:23:51;2.17;;;1.97;;
59161;SDS011;44942;48.936;8.260;2024-01-07T06:28:51;2.13;;;1.93;;
59161;SDS011;44942;48.936;8.260;2024-01-07T06:33:52;1.90;;;1.70;;
59161;SDS011;44942;48.936;8.260;2024-01-07T06:38:53;2.75;;;1.80;;
59161;SDS011;44942;48.936;8.260;2024-01-07T06:43:53;1.90;;;1.80;;
59161;SDS011;44942;48.936;8.260;2024-01-07T06:48:56;2.10;;;1.83;;
59161;SDS011;44942;48.936;8.260;2024-01-07T06:53:57;2.90;;;2.70;;
59161;SDS011;44942;48.936;8.260;2024-01-07T06:58:58;3.03;;;2.73;;
59161;SDS011;44942;48.936;8.260;2024-01-07T07:03:58;2.37;;;2.17;;
59161;SDS011;44942;48.936;8.260;2024-01-07T07:08:59;2.60;;;2.40;;
59161;SDS011;44942;48.936;8.260;2024-01-07T07:13:59;2.70;;;2.50;;
59161;SDS011;44942;48.936;8.260;2024-01-07T07:19:00;2.60;;;2.40;;
59161;SDS011;44942;48.936;8.260;2024-01-07T07:24:00;2.40;;;2.20;;
59161;SDS011;44942;48.936;8.260;2024-01-07T07:29:01;2.47;;;2.27;;
59161;SDS011;44942;48.936;8.260;2024-01-07T07:34:05;2.05;;;1.85;;
59161;SDS011;44942;48.936;8.260;2024-01-07T07:39:05;2.40;;;2.10;;
59161;SDS011;44942;48.936;8.260;2024-01-07T07:44:06;2.20;;;2.00;;
59161;SDS011;44942;48.936;8.260;2024-01-07T07:49:07;2.43;;;1.80;;
59161;SDS011;44942;48.936;8.260;2024-01-07T07:54:07;2.00;;;1.80;;
59161;SDS011;44942;48.936;8.260;2024-01-07T07:59:08;2.00;;;1.90;;
59161;SDS011;44942;48.936;8.260;2024-01-07T08:04:08;1.80;;;1.70;;
59161;SDS011;44942;48.936;8.260;2024-01-07T08:09:10;2.20;;;2.00;;
59161;SDS011;44942;48.936;8.260;2024-01-07T08:14:10;1.90;;;1.80;;
59161;SDS011;44942;48.936;8.260;2024-01-07T08:19:11;2.07;;;1.90;;
59161;SDS011;44942;48.936;8.260;2024-01-07T08:24:12;4.20;;;2.10;;
59161;SDS011;44942;48.936;8.260;2024-01-07T08:29:12;3.33;;;2.00;;
59161;SDS011;44942;48.936;8.260;2024-01-07T08:34:13;2.27;;;1.73;;
59161;SDS011;44942;48.936;8.260;2024-01-07T08:39:15;10.55;;;2.08;;
59161;SDS011;44942;48.936;8.260;2024-01-07T08:44:15;2.17;;;1.98;;
59161;SDS011;44942;48.936;8.260;2024-01-07T08:49:16;4.50;;;2.33;;
59161;SDS011;44942;48.936;8.260;2024-01-07T08:54:16;4.87;;;3.27;;
59161;SDS011;44942;48.936;8.260;2024-01-07T08:59:17;3.07;;;2.70;;
59161;SDS011;44942;48.936;8.260;2024-01-07T09:04:17;3.07;;;2.77;;
59161;SDS011;44942;48.936;8.260;2024-01-07T09:09:18;2.80;;;2.20;;
59161;SDS011;44942;48.936;8.260;2024-01-07T09:14:19;2.60;;;2.40;;
59161;SDS011;44942;48.936;8.260;2024-01-07T09:19:19;2.40;;;2.20;;
59161;SDS011;44942;48.936;8.260;2024-01-07T09:24:20;2.67;;;2.40;;
59161;SDS011;44942;48.936;8.260;2024-01-07T09:29:20;2.30;;;2.10;;
59161;SDS011;44942;48.936;8.260;2024-01-07T09:34:21;2.53;;;2.33;;
59161;SDS011;44942;48.936;8.260;2024-01-07T09:39:22;5.60;;;2.40;;
59161;SDS011;44942;48.936;8.260;2024-01-07T09:44:22;2.57;;;2.23;;
59161;SDS011;44942;48.936;8.260;2024-01-07T09:49:23;3.45;;;2.10;;
59161;SDS011;44942;48.936;8.260;2024-01-07T09:54:24;5.80;;;4.10;;
59161;SDS011;44942;48.936;8.260;2024-01-07T09:59:25;22.02;;;4.55;;
59161;SDS011;44942;48.936;8.260;2024-01-07T10:04:27;7.15;;;3.60;;
59161;SDS011;44942;48.936;8.260;2024-01-07T10:09:29;10.10;;;3.20;;
59161;SDS011;44942;48.936;8.260;2024-01-07T10:14:32;5.88;;;2.83;;
59161;SDS011;44942;48.936;8.260;2024-01-07T10:19:34;11.13;;;2.97;;
59161;SDS011;44942;48.936;8.260;2024-01-07T10:24:36;9.05;;;2.53;;
59161;SDS011;44942;48.936;8.260;2024-01-07T10:29:40;5.55;;;2.80;;
59161;SDS011;44942;48.936;8.260;2024-01-07T10:39:48;3.65;;;2.42;;
59161;SDS011;44942;48.936;8.260;2024-01-07T10:44:49;2.70;;;2.50;;
59161;SDS011;44942;48.936;8.260;2024-01-07T10:49:50;2.80;;;2.50;;
59161;SDS011;44942;48.936;8.260;2024-01-07T10:59:52;4.40;;;3.30;;
59161;SDS011;44942;48.936;8.260;2024-01-07T11:04:56;3.45;;;3.00;;
59161;SDS011;44942;48.936;8.260;2024-01-07T11:10:09;2.83;;;2.58;;
59161;SDS011;44942;48.936;8.260;2024-01-07T11:15:10;3.53;;;2.88;;
59161;SDS011;44942;48.936;8.260;2024-01-07T11:20:13;3.22;;;2.80;;
59161;SDS011;44942;48.936;8.260;2024-01-07T11:25:28;5.25;;;2.40;;
59161;SDS011;44942;48.936;8.260;2024-01-07T11:30:37;3.00;;;2.70;;
59161;SDS011;44942;48.936;8.260;2024-01-07T11:35:55;4.00;;;2.42;;
59161;SDS011;44942;48.936;8.260;2024-01-07T11:40:57;3.58;;;2.30;;
59161;SDS011;44942;48.936;8.260;2024-01-07T11:46:00;2.85;;;2.30;;
59161;SDS011;44942;48.936;8.260;2024-01-07T11:51:01;4.70;;;2.85;;
59161;SDS011;44942;48.936;8.260;2024-01-07T11:56:01;3.27;;;2.80;;
59161;SDS011;44942;48.936;8.260;2024-01-07T12:01:02;8.77;;;3.17;;
59161;SDS011;44942;48.936;8.260;2024-01-07T12:06:03;3.05;;;2.50;;
59161;SDS011;44942;48.936;8.260;2024-01-07T12:11:04;3.92;;;2.80;;
59161;SDS011;44942;48.936;8.260;2024-01-07T12:16:05;2.95;;;2.33;;
59161;SDS011;44942;48.936;8.260;2024-01-07T12:21:07;2.80;;;2.53;;
59161;SDS011;44942;48.936;8.260;2024-01-07T12:26:11;7.00;;;2.60;;
59161;SDS011;44942;48.936;8.260;2024-01-07T12:31:12;2.70;;;2.42;;
59161;SDS011;44942;48.936;8.260;2024-01-07T12:36:12;5.13;;;2.40;;
59161;SDS011;44942;48.936;8.260;2024-01-07T12:41:15;2.33;;;2.13;;
59161;SDS011;44942;48.936;8.260;2024-01-07T12:46:15;5.80;;;2.50;;
59161;SDS011;44942;48.936;8.260;2024-01-07T12:51:16;3.80;;;2.28;;
59161;SDS011;44942;48.936;8.260;2024-01-07T12:56:17;5.30;;;2.57;;
59161;SDS011;44942;48.936;8.260;2024-01-07T13:01:17;4.90;;;2.30;;
59161;SDS011;44942;48.936;8.260;2024-01-07T13:06:18;18.77;;;3.03;;
59161;SDS011;44942;48.936;8.260;2024-01-07T13:11:18;5.40;;;2.40;;
59161;SDS011;44942;48.936;8.260;2024-01-07T13:16:19;6.93;;;2.70;;
59161;SDS011;44942;48.936;8.260;2024-01-07T13:21:20;5.10;;;2.37;;
59161;SDS011;44942;48.936;8.260;2024-01-07T13:26:20;3.13;;;2.42;;
59161;SDS011;44942;48.936;8.260;2024-01-07T13:31:21;3.07;;;2.23;;
59161;SDS011;44942;48.936;8.260;2024-01-07T13:36:22;5.00;;;2.20;;
59161;SDS011;44942;48.936;8.260;2024-01-07T13:41:22;5.70;;;2.63;;
59161;SDS011;44942;48.936;8.260;2024-01-07T13:46:24;4.80;;;2.45;;
59161;SDS011;44942;48.936;8.260;2024-01-07T13:51:25;6.18;;;2.78;;
59161;SDS011;44942;48.936;8.260;2024-01-07T13:56:26;3.28;;;2.60;;
59161;SDS011;44942;48.936;8.260;2024-01-07T14:01:27;4.65;;;2.67;;
59161;SDS011;44942;48.936;8.260;2024-01-07T14:06:27;2.97;;;2.63;;
59161;SDS011;44942;48.936;8.260;2024-01-07T14:11:28;3.57;;;2.20;;
59161;SDS011;44942;48.936;8.260;2024-01-07T14:16:29;2.78;;;2.20;;
59161;SDS011;44942;48.936;8.260;2024-01-07T14:21:29;4.43;;;2.60;;
59161;SDS011;44942;48.936;8.260;2024-01-07T14:26:33;3.90;;;2.40;;
59161;SDS011;44942;48.936;8.260;2024-01-07T14:31:33;5.73;;;2.23;;
59161;SDS011;44942;48.936;8.260;2024-01-07T14:36:34;2.90;;;2.30;;
59161;SDS011;44942;48.936;8.260;2024-01-07T14:41:34;4.33;;;2.40;;
59161;SDS011;44942;48.936;8.260;2024-01-07T14:46:35;3.83;;;2.20;;
59161;SDS011;44942;48.936;8.260;2024-01-07T14:51:35;3.93;;;2.23;;
59161;SDS011;44942;48.936;8.260;2024-01-07T14:56:36;4.72;;;2.30;;
59161;SDS011;44942;48.936;8.260;2024-01-07T15:01:37;3.27;;;2.50;;
59161;SDS011;44942;48.936;8.260;2024-01-07T15:06:42;3.72;;;2.08;;
59161;SDS011;44942;48.936;8.260;2024-01-07T15:11:43;2.65;;;2.42;;
59161;SDS011;44942;48.936;8.260;2024-01-07T15:16:48;4.28;;;2.50;;
59161;SDS011;44942;48.936;8.260;2024-01-07T15:21:53;3.10;;;2.28;;
59161;SDS011;44942;48.936;8.260;2024-01-07T15:26:54;2.57;;;2.30;;
59161;SDS011;44942;48.936;8.260;2024-01-07T15:31:55;2.80;;;2.22;;
59161;SDS011;44942;48.936;8.260;2024-01-07T15:36:55;3.17;;;2.50;;
59161;SDS011;44942;48.936;8.260;2024-01-07T15:41:56;6.50;;;2.15;;
59161;SDS011;44942;48.936;8.260;2024-01-07T15:46:57;5.82;;;2.50;;
59161;SDS011;44942;48.936;8.260;2024-01-07T15:51:58;4.80;;;3.30;;
59161;SDS011;44942;48.936;8.260;2024-01-07T15:56:58;4.17;;;3.63;;
59161;SDS011;44942;48.936;8.260;2024-01-07T16:01:59;3.27;;;2.83;;
59161;SDS011;44942;48.936;8.260;2024-01-07T16:06:59;11.32;;;3.63;;
59161;SDS011;44942;48.936;8.260;2024-01-07T16:12:00;10.77;;;4.53;;
59161;SDS011;44942;48.936;8.260;2024-01-07T16:17:02;13.43;;;6.30;;
59161;SDS011;44942;48.936;8.260;2024-01-07T16:22:03;17.02;;;7.40;;
59161;SDS011;44942;48.936;8.260;2024-01-07T16:27:07;18.02;;;7.40;;
59161;SDS011;44942;48.936;8.260;2024-01-07T16:32:08;19.50;;;8.82;;
59161;SDS011;44942;48.936;8.260;2024-01-07T16:37:08;20.93;;;8.93;;
59161;SDS011;44942;48.936;8.260;2024-01-07T16:42:09;21.67;;;8.33;;
59161;SDS011;44942;48.936;8.260;2024-01-07T16:47:10;18.65;;;8.00;;
59161;SDS011;44942;48.936;8.260;2024-01-07T16:52:12;23.80;;;9.07;;
59161;SDS011;44942;48.936;8.260;2024-01-07T16:57:13;14.83;;;7.77;;
59161;SDS011;44942;48.936;8.260;2024-01-07T17:02:14;15.60;;;6.78;;
59161;SDS011;44942;48.936;8.260;2024-01-07T17:07:14;13.10;;;7.03;;
59161;SDS011;44942;48.936;8.260;2024-01-07T17:12:15;17.17;;;7.33;;
59161;SDS011;44942;48.936;8.260;2024-01-07T17:17:16;19.27;;;7.30;;
59161;SDS011;44942;48.936;8.260;2024-01-07T17:22:16;17.98;;;7.45;;
59161;SDS011;44942;48.936;8.260;2024-01-07T17:27:17;18.13;;;6.70;;
59161;SDS011;44942;48.936;8.260;2024-01-07T17:32:18;16.33;;;6.93;;
59161;SDS011;44942;48.936;8.260;2024-01-07T17:37:22;14.13;;;6.15;;
59161;SDS011;44942;48.936;8.260;2024-01-07T17:42:23;13.40;;;6.45;;
59161;SDS011;44942;48.936;8.260;2024-01-07T17:47:24;12.40;;;5.80;;
59161;SDS011;44942;48.936;8.260;2024-01-07T17:52:25;14.95;;;6.32;;
59161;SDS011;44942;48.936;8.260;2024-01-07T17:57:26;14.30;;;6.35;;
59161;SDS011;44942;48.936;8.260;2024-01-07T18:02:30;11.55;;;6.03;;
59161;SDS011;44942;48.936;8.260;2024-01-07T18:07:30;10.30;;;5.33;;
59161;SDS011;44942;48.936;8.260;2024-01-07T18:12:31;12.83;;;6.13;;
59161;SDS011;44942;48.936;8.260;2024-01-07T18:17:32;11.88;;;5.25;;
59161;SDS011;44942;48.936;8.260;2024-01-07T18:22:37;9.27;;;5.03;;
59161;SDS011;44942;48.936;8.260;2024-01-07T18:27:39;11.02;;;5.43;;
59161;SDS011;44942;48.936;8.260;2024-01-07T18:32:40;11.10;;;5.47;;
59161;SDS011;44942;48.936;8.260;2024-01-07T18:37:41;9.18;;;5.32;;
59161;SDS011;44942;48.936;8.260;2024-01-07T18:42:44;9.30;;;4.70;;
59161;SDS011;44942;48.936;8.260;2024-01-07T18:47:45;11.70;;;5.05;;
59161;SDS011;44942;48.936;8.260;2024-01-07T18:52:46;8.68;;;5.38;;
59161;SDS011;44942;48.936;8.260;2024-01-07T18:57:46;7.50;;;4.67;;
59161;SDS011;44942;48.936;8.260;2024-01-07T19:02:47;7.50;;;4.67;;
59161;SDS011;44942;48.936;8.260;2024-01-07T19:07:47;9.47;;;4.60;;
59161;SDS011;44942;48.936;8.260;2024-01-07T19:12:48;6.87;;;4.13;;
59161;SDS011;44942;48.936;8.260;2024-01-07T19:17:49;8.95;;;4.38;;
59161;SDS011;44942;48.936;8.260;2024-01-07T19:22:49;8.97;;;3.73;;
59161;SDS011;44942;48.936;8.260;2024-01-07T19:27:50;9.90;;;3.97;;
59161;SDS011;44942;48.936;8.260;2024-01-07T19:32:50;5.90;;;3.57;;
59161;SDS011;44942;48.936;8.260;2024-01-07T19:37:51;12.40;;;4.00;;
59161;SDS011;44942;48.936;8.260;2024-01-07T19:42:52;6.60;;;3.60;;
59161;SDS011;44942;48.936;8.260;2024-01-07T19:47:55;5.65;;;3.60;;
59161;SDS011;44942;48.936;8.260;2024-01-07T19:52:56;5.47;;;3.67;;
59161;SDS011;44942;48.936;8.260;2024-01-07T19:57:56;4.00;;;3.43;;
59161;SDS011;44942;48.936;8.260;2024-01-07T20:02:57;5.17;;;3.30;;
59161;SDS011;44942;48.936;8.260;2024-01-07T20:07:58;4.80;;;3.40;;
59161;SDS011;44942;48.936;8.260;2024-01-07T20:12:58;5.77;;;3.70;;
59161;SDS011;44942;48.936;8.260;2024-01-07T20:17:59;4.65;;;3.42;;
59161;SDS011;44942;48.936;8.260;2024-01-07T20:23:00;4.40;;;2.93;;
59161;SDS011;44942;48.936;8.260;2024-01-07T20:28:01;5.93;;;3.00;;
59161;SDS011;44942;48.936;8.260;2024-01-07T20:33:01;3.57;;;2.87;;
59161;SDS011;44942;48.936;8.260;2024-01-07T20:38:04;4.05;;;2.88;;
59161;SDS011;44942;48.936;8.260;2024-01-07T20:43:05;4.37;;;3.00;;
59161;SDS011;44942;48.936;8.260;2024-01-07T20:48:09;4.32;;;2.67;;
59161;SDS011;44942;48.936;8.260;2024-01-07T20:53:10;4.23;;;2.80;;
59161;SDS011;44942;48.936;8.260;2024-01-07T20:58:10;3.40;;;2.50;;
59161;SDS011;44942;48.936;8.260;2024-01-07T21:03:14;3.63;;;2.58;;
59161;SDS011;44942;48.936;8.260;2024-01-07T21:08:16;3.95;;;2.65;;
59161;SDS011;44942;48.936;8.260;2024-01-07T21:13:17;3.10;;;2.25;;
59161;SDS011;44942;48.936;8.260;2024-01-07T21:18:18;3.13;;;2.53;;
59161;SDS011;44942;48.936;8.260;2024-01-07T21:28:23;4.05;;;2.50;;
59161;SDS011;44942;48.936;8.260;2024-01-07T21:33:24;3.65;;;2.40;;
59161;SDS011;44942;48.936;8.260;2024-01-07T21:38:26;3.13;;;2.17;;
59161;SDS011;44942;48.936;8.260;2024-01-07T21:43:27;2.73;;;2.20;;
59161;SDS011;44942;48.936;8.260;2024-01-07T21:48:27;3.10;;;2.27;;
59161;SDS011;44942;48.936;8.260;2024-01-07T21:53:33;3.10;;;2.33;;
59161;SDS011;44942;48.936;8.260;2024-01-07T21:58:33;3.20;;;2.23;;
59161;SDS011;44942;48.936;8.260;2024-01-07T22:03:34;2.83;;;2.20;;
59161;SDS011;44942;48.936;8.260;2024-01-07T22:08:34;2.60;;;2.40;;
59161;SDS011;44942;48.936;8.260;2024-01-07T22:13:35;3.90;;;2.17;;
59161;SDS011;44942;48.936;8.260;2024-01-07T22:18:37;3.23;;;2.20;;
59161;SDS011;44942;48.936;8.260;2024-01-07T22:23:38;2.75;;;2.08;;
59161;SDS011;44942;48.936;8.260;2024-01-07T22:28:38;3.27;;;1.80;;
59161;SDS011;44942;48.936;8.260;2024-01-07T22:33:40;3.88;;;2.53;;
59161;SDS011;44942;48.936;8.260;2024-01-07T22:38:41;2.53;;;2.28;;
59161;SDS011;44942;48.936;8.260;2024-01-07T22:43:42;2.60;;;2.07;;
59161;SDS011;44942;48.936;8.260;2024-01-07T22:48:42;2.47;;;1.90;;
59161;SDS011;44942;48.936;8.260;2024-01-07T22:53:43;2.43;;;1.80;;
59161;SDS011;44942;48.936;8.260;2024-01-07T22:58:44;2.05;;;1.77;;
59161;SDS011;44942;48.936;8.260;2024-01-07T23:03:44;2.10;;;1.70;;
59161;SDS011;44942;48.936;8.260;2024-01-07T23:08:45;2.80;;;1.77;;
59161;SDS011;44942;48.936;8.260;2024-01-07T23:13:45;2.50;;;2.03;;
59161;SDS011;44942;48.936;8.260;2024-01-07T23:18:48;1.70;;;1.45;;
59161;SDS011;44942;48.936;8.260;2024-01-07T23:23:49;1.83;;;1.57;;
59161;SDS011;44942;48.936;8.260;2024-01-07T23:28:50;2.08;;;1.70;;
59161;SDS011;44942;48.936;8.260;2024-01-07T23:33:50;1.83;;;1.63;;
59161;SDS011;44942;48.936;8.260;2024-01-07T23:38:51;2.37;;;1.70;;
59161;SDS011;44942;48.936;8.260;2024-01-07T23:43:51;1.80;;;1.50;;
59161;SDS011;44942;48.936;8.260;2024-01-07T23:48:52;1.60;;;1.50;;
59161;SDS011;44942;48.936;8.260;2024-01-07T23:53:53;1.77;;;1.50;;
59161;SDS011;44942;48.936;8.260;2024-01-07T23:58:53;1.83;;;1.60;;
